sensor_id;sensor_type;location;lat;lon;timestamp;P1;durP1;ratioP1;P2;durP2;ratioP2
64857;SDS011;51335;51.148;6.950;2023-07-02T00:00:16;5.82;;;2.40;;
64857;SDS011;51335;51.148;6.950;2023-07-02T00:00:46;4.47;;;2.15;;
64857;SDS011;51335;51.148;6.950;2023-07-02T00:01:16;6.70;;;2.40;;
64857;SDS011;51335;51.148;6.950;2023-07-02T00:01:47;8.23;;;3.05;;
64857;SDS011;51335;51.148;6.950;2023-07-02T00:02:17;8.43;;;2.45;;
64857;SDS011;51335;51.148;6.950;2023-07-02T00:02:47;6.18;;;2.45;;
64857;SDS011;51335;51.148;6.950;2023-07-02T00:03:18;7.57;;;2.72;;
64857;SDS011;51335;51.148;6.950;2023-07-02T00:03:48;5.22;;;2.50;;
64857;SDS011;51335;51.148;6.950;2023-07-02T00:04:18;8.23;;;2.35;;
64857;SDS011;51335;51.148;6.950;2023-07-02T00:04:49;6.40;;;2.40;;
64857;SDS011;51335;51.148;6.950;2023-07-02T00:05:19;8.82;;;2.72;;
64857;SDS011;51335;51.148;6.950;2023-07-02T00:05:49;5.10;;;2.35;;
64857;SDS011;51335;51.148;6.950;2023-07-02T00:06:19;7.00;;;3.10;;
64857;SDS011;51335;51.148;6.950;2023-07-02T00:06:51;6.20;;;2.63;;
64857;SDS011;51335;51.148;6.950;2023-07-02T00:07:21;7.45;;;2.90;;
64857;SDS011;51335;51.148;6.950;2023-07-02T00:07:52;5.72;;;2.38;;
64857;SDS011;51335;51.148;6.950;2023-07-02T00:08:22;6.20;;;2.50;;
64857;SDS011;51335;51.148;6.950;2023-07-02T00:08:53;5.72;;;2.50;;
64857;SDS011;51335;51.148;6.950;2023-07-02T00:09:23;5.65;;;2.50;;
64857;SDS011;51335;51.148;6.950;2023-07-02T00:09:53;7.78;;;2.80;;
64857;SDS011;51335;51.148;6.950;2023-07-02T00:10:24;6.45;;;2.60;;
64857;SDS011;51335;51.148;6.950;2023-07-02T00:10:54;6.97;;;2.50;;
64857;SDS011;51335;51.148;6.950;2023-07-02T00:11:24;8.75;;;2.92;;
64857;SDS011;51335;51.148;6.950;2023-07-02T00:11:55;6.88;;;2.50;;
64857;SDS011;51335;51.148;6.950;2023-07-02T00:12:25;5.82;;;2.33;;
64857;SDS011;51335;51.148;6.950;2023-07-02T00:12:55;6.10;;;2.38;;
64857;SDS011;51335;51.148;6.950;2023-07-02T00:13:26;12.75;;;2.60;;
64857;SDS011;51335;51.148;6.950;2023-07-02T00:13:56;5.57;;;2.28;;
64857;SDS011;51335;51.148;6.950;2023-07-02T00:14:26;7.15;;;2.70;;
64857;SDS011;51335;51.148;6.950;2023-07-02T00:14:57;10.43;;;2.55;;
64857;SDS011;51335;51.148;6.950;2023-07-02T00:15:27;9.48;;;2.45;;
64857;SDS011;51335;51.148;6.950;2023-07-02T00:15:57;4.60;;;2.30;;
64857;SDS011;51335;51.148;6.950;2023-07-02T00:16:27;8.20;;;2.38;;
64857;SDS011;51335;51.148;6.950;2023-07-02T00:16:58;7.93;;;2.40;;
64857;SDS011;51335;51.148;6.950;2023-07-02T00:17:28;7.32;;;2.40;;
64857;SDS011;51335;51.148;6.950;2023-07-02T00:17:59;6.72;;;2.45;;
64857;SDS011;51335;51.148;6.950;2023-07-02T00:18:29;5.72;;;2.40;;
64857;SDS011;51335;51.148;6.950;2023-07-02T00:18:59;8.75;;;2.15;;
64857;SDS011;51335;51.148;6.950;2023-07-02T00:19:29;8.50;;;2.80;;
64857;SDS011;51335;51.148;6.950;2023-07-02T00:20:00;6.05;;;2.60;;
64857;SDS011;51335;51.148;6.950;2023-07-02T00:20:30;10.68;;;2.58;;
64857;SDS011;51335;51.148;6.950;2023-07-02T00:21:01;6.18;;;2.45;;
64857;SDS011;51335;51.148;6.950;2023-07-02T00:21:31;8.02;;;2.30;;
64857;SDS011;51335;51.148;6.950;2023-07-02T00:22:02;4.63;;;2.30;;
64857;SDS011;51335;51.148;6.950;2023-07-02T00:22:32;7.60;;;2.55;;
64857;SDS011;51335;51.148;6.950;2023-07-02T00:23:02;7.70;;;2.42;;
64857;SDS011;51335;51.148;6.950;2023-07-02T00:23:33;7.20;;;2.75;;
64857;SDS011;51335;51.148;6.950;2023-07-02T00:24:04;10.93;;;2.95;;
64857;SDS011;51335;51.148;6.950;2023-07-02T00:24:34;8.95;;;2.40;;
64857;SDS011;51335;51.148;6.950;2023-07-02T00:25:05;7.43;;;2.40;;
64857;SDS011;51335;51.148;6.950;2023-07-02T00:25:36;7.50;;;2.60;;
64857;SDS011;51335;51.148;6.950;2023-07-02T00:26:06;4.85;;;2.63;;
64857;SDS011;51335;51.148;6.950;2023-07-02T00:26:37;7.50;;;2.60;;
64857;SDS011;51335;51.148;6.950;2023-07-02T00:27:08;10.45;;;2.80;;
64857;SDS011;51335;51.148;6.950;2023-07-02T00:27:38;5.65;;;2.38;;
64857;SDS011;51335;51.148;6.950;2023-07-02T00:28:08;7.55;;;2.50;;
64857;SDS011;51335;51.148;6.950;2023-07-02T00:28:38;5.88;;;2.45;;
64857;SDS011;51335;51.148;6.950;2023-07-02T00:29:09;8.38;;;2.88;;
64857;SDS011;51335;51.148;6.950;2023-07-02T00:29:39;6.03;;;2.50;;
64857;SDS011;51335;51.148;6.950;2023-07-02T00:30:09;9.75;;;2.65;;
64857;SDS011;51335;51.148;6.950;2023-07-02T00:30:40;8.00;;;2.97;;
64857;SDS011;51335;51.148;6.950;2023-07-02T00:31:10;8.20;;;2.78;;
64857;SDS011;51335;51.148;6.950;2023-07-02T00:31:40;5.75;;;2.53;;
64857;SDS011;51335;51.148;6.950;2023-07-02T00:32:11;6.60;;;2.60;;
64857;SDS011;51335;51.148;6.950;2023-07-02T00:32:41;7.43;;;2.90;;
64857;SDS011;51335;51.148;6.950;2023-07-02T00:33:11;7.70;;;2.63;;
64857;SDS011;51335;51.148;6.950;2023-07-02T00:33:42;8.55;;;2.63;;
64857;SDS011;51335;51.148;6.950;2023-07-02T00:34:12;9.32;;;2.60;;
64857;SDS011;51335;51.148;6.950;2023-07-02T00:34:42;6.80;;;2.72;;
64857;SDS011;51335;51.148;6.950;2023-07-02T00:35:13;7.40;;;2.38;;
64857;SDS011;51335;51.148;6.950;2023-07-02T00:35:43;4.88;;;2.60;;
64857;SDS011;51335;51.148;6.950;2023-07-02T00:36:13;8.15;;;2.58;;
64857;SDS011;51335;51.148;6.950;2023-07-02T00:36:44;7.22;;;2.65;;
64857;SDS011;51335;51.148;6.950;2023-07-02T00:37:15;7.57;;;2.80;;
64857;SDS011;51335;51.148;6.950;2023-07-02T00:37:45;6.97;;;2.80;;
64857;SDS011;51335;51.148;6.950;2023-07-02T00:38:16;12.10;;;2.78;;
64857;SDS011;51335;51.148;6.950;2023-07-02T00:38:46;5.90;;;2.63;;
64857;SDS011;51335;51.148;6.950;2023-07-02T00:39:18;11.27;;;2.85;;
64857;SDS011;51335;51.148;6.950;2023-07-02T00:39:48;7.55;;;2.40;;
64857;SDS011;51335;51.148;6.950;2023-07-02T00:40:18;7.53;;;2.90;;
64857;SDS011;51335;51.148;6.950;2023-07-02T00:40:49;6.13;;;2.60;;
64857;SDS011;51335;51.148;6.950;2023-07-02T00:41:19;5.15;;;2.47;;
64857;SDS011;51335;51.148;6.950;2023-07-02T00:41:49;8.25;;;3.17;;
64857;SDS011;51335;51.148;6.950;2023-07-02T00:42:19;10.65;;;2.78;;
64857;SDS011;51335;51.148;6.950;2023-07-02T00:42:50;6.82;;;2.70;;
64857;SDS011;51335;51.148;6.950;2023-07-02T00:43:20;8.50;;;2.58;;
64857;SDS011;51335;51.148;6.950;2023-07-02T00:43:50;7.10;;;2.53;;
64857;SDS011;51335;51.148;6.950;2023-07-02T00:44:21;10.15;;;3.15;;
64857;SDS011;51335;51.148;6.950;2023-07-02T00:44:51;6.60;;;2.80;;
64857;SDS011;51335;51.148;6.950;2023-07-02T00:45:22;6.18;;;2.67;;
64857;SDS011;51335;51.148;6.950;2023-07-02T00:45:52;11.45;;;3.22;;
64857;SDS011;51335;51.148;6.950;2023-07-02T00:46:23;6.20;;;2.85;;
64857;SDS011;51335;51.148;6.950;2023-07-02T00:46:54;8.30;;;2.90;;
64857;SDS011;51335;51.148;6.950;2023-07-02T00:47:24;10.40;;;3.03;;
64857;SDS011;51335;51.148;6.950;2023-07-02T00:47:55;6.10;;;2.75;;
64857;SDS011;51335;51.148;6.950;2023-07-02T00:48:25;9.43;;;2.97;;
64857;SDS011;51335;51.148;6.950;2023-07-02T00:48:55;9.82;;;3.17;;
64857;SDS011;51335;51.148;6.950;2023-07-02T00:49:26;8.32;;;2.95;;
64857;SDS011;51335;51.148;6.950;2023-07-02T00:49:56;10.45;;;3.40;;
64857;SDS011;51335;51.148;6.950;2023-07-02T00:50:27;7.13;;;2.80;;
64857;SDS011;51335;51.148;6.950;2023-07-02T00:50:57;7.22;;;3.20;;
64857;SDS011;51335;51.148;6.950;2023-07-02T00:51:29;11.57;;;3.25;;
64857;SDS011;51335;51.148;6.950;2023-07-02T00:51:59;6.80;;;3.03;;
64857;SDS011;51335;51.148;6.950;2023-07-02T00:52:30;8.35;;;2.83;;
64857;SDS011;51335;51.148;6.950;2023-07-02T00:53:00;9.48;;;3.25;;
64857;SDS011;51335;51.148;6.950;2023-07-02T00:53:31;6.97;;;2.80;;
64857;SDS011;51335;51.148;6.950;2023-07-02T00:54:01;7.53;;;3.17;;
64857;SDS011;51335;51.148;6.950;2023-07-02T00:54:31;8.15;;;3.30;;
64857;SDS011;51335;51.148;6.950;2023-07-02T00:55:02;11.60;;;3.38;;
64857;SDS011;51335;51.148;6.950;2023-07-02T00:55:32;7.90;;;3.03;;
64857;SDS011;51335;51.148;6.950;2023-07-02T00:56:02;8.25;;;3.60;;
64857;SDS011;51335;51.148;6.950;2023-07-02T00:56:33;7.43;;;3.53;;
64857;SDS011;51335;51.148;6.950;2023-07-02T00:57:03;10.60;;;3.67;;
64857;SDS011;51335;51.148;6.950;2023-07-02T00:57:34;8.93;;;3.65;;
64857;SDS011;51335;51.148;6.950;2023-07-02T00:58:04;9.02;;;3.70;;
64857;SDS011;51335;51.148;6.950;2023-07-02T00:58:34;7.13;;;3.47;;
64857;SDS011;51335;51.148;6.950;2023-07-02T00:59:08;11.93;;;3.70;;
64857;SDS011;51335;51.148;6.950;2023-07-02T00:59:39;10.60;;;3.70;;
64857;SDS011;51335;51.148;6.950;2023-07-02T01:00:09;8.88;;;4.00;;
64857;SDS011;51335;51.148;6.950;2023-07-02T01:00:40;12.05;;;4.05;;
64857;SDS011;51335;51.148;6.950;2023-07-02T01:01:10;12.43;;;4.20;;
64857;SDS011;51335;51.148;6.950;2023-07-02T01:01:40;9.10;;;4.40;;
64857;SDS011;51335;51.148;6.950;2023-07-02T01:02:11;11.77;;;4.10;;
64857;SDS011;51335;51.148;6.950;2023-07-02T01:02:41;11.30;;;3.88;;
64857;SDS011;51335;51.148;6.950;2023-07-02T01:03:11;12.40;;;3.85;;
64857;SDS011;51335;51.148;6.950;2023-07-02T01:03:52;8.35;;;3.92;;
64857;SDS011;51335;51.148;6.950;2023-07-02T01:04:22;9.43;;;4.13;;
64857;SDS011;51335;51.148;6.950;2023-07-02T01:04:52;9.63;;;4.03;;
64857;SDS011;51335;51.148;6.950;2023-07-02T01:05:23;13.25;;;4.03;;
64857;SDS011;51335;51.148;6.950;2023-07-02T01:05:53;10.35;;;4.20;;
64857;SDS011;51335;51.148;6.950;2023-07-02T01:06:24;13.10;;;4.30;;
64857;SDS011;51335;51.148;6.950;2023-07-02T01:06:55;14.27;;;4.20;;
64857;SDS011;51335;51.148;6.950;2023-07-02T01:07:25;10.75;;;4.20;;
64857;SDS011;51335;51.148;6.950;2023-07-02T01:07:55;9.15;;;3.78;;
64857;SDS011;51335;51.148;6.950;2023-07-02T01:08:26;9.75;;;4.38;;
64857;SDS011;51335;51.148;6.950;2023-07-02T01:08:57;8.98;;;4.22;;
64857;SDS011;51335;51.148;6.950;2023-07-02T01:09:29;11.45;;;4.38;;
64857;SDS011;51335;51.148;6.950;2023-07-02T01:09:59;15.07;;;4.07;;
64857;SDS011;51335;51.148;6.950;2023-07-02T01:10:29;11.98;;;4.32;;
64857;SDS011;51335;51.148;6.950;2023-07-02T01:11:00;10.75;;;4.45;;
64857;SDS011;51335;51.148;6.950;2023-07-02T01:11:31;11.05;;;3.88;;
64857;SDS011;51335;51.148;6.950;2023-07-02T01:12:41;9.65;;;4.00;;
64857;SDS011;51335;51.148;6.950;2023-07-02T01:13:12;12.35;;;4.50;;
64857;SDS011;51335;51.148;6.950;2023-07-02T01:13:46;11.95;;;4.50;;
64857;SDS011;51335;51.148;6.950;2023-07-02T01:14:23;13.10;;;4.40;;
64857;SDS011;51335;51.148;6.950;2023-07-02T01:14:56;8.98;;;4.13;;
64857;SDS011;51335;51.148;6.950;2023-07-02T01:15:30;7.82;;;4.00;;
64857;SDS011;51335;51.148;6.950;2023-07-02T01:16:01;10.80;;;4.30;;
64857;SDS011;51335;51.148;6.950;2023-07-02T01:16:32;12.32;;;4.45;;
64857;SDS011;51335;51.148;6.950;2023-07-02T01:17:03;9.23;;;4.50;;
64857;SDS011;51335;51.148;6.950;2023-07-02T01:17:35;12.25;;;4.80;;
64857;SDS011;51335;51.148;6.950;2023-07-02T01:18:05;12.02;;;4.63;;
64857;SDS011;51335;51.148;6.950;2023-07-02T01:18:37;13.52;;;4.88;;
64857;SDS011;51335;51.148;6.950;2023-07-02T01:19:09;10.75;;;4.55;;
64857;SDS011;51335;51.148;6.950;2023-07-02T01:20:20;10.93;;;4.72;;
64857;SDS011;51335;51.148;6.950;2023-07-02T01:20:50;11.63;;;4.70;;
64857;SDS011;51335;51.148;6.950;2023-07-02T01:21:22;12.05;;;4.35;;
64857;SDS011;51335;51.148;6.950;2023-07-02T01:21:54;13.65;;;4.90;;
64857;SDS011;51335;51.148;6.950;2023-07-02T01:22:25;14.68;;;4.55;;
64857;SDS011;51335;51.148;6.950;2023-07-02T01:22:56;12.70;;;4.63;;
64857;SDS011;51335;51.148;6.950;2023-07-02T01:23:27;12.05;;;4.68;;
64857;SDS011;51335;51.148;6.950;2023-07-02T01:23:59;11.68;;;4.88;;
64857;SDS011;51335;51.148;6.950;2023-07-02T01:24:30;10.60;;;4.25;;
64857;SDS011;51335;51.148;6.950;2023-07-02T01:25:00;12.57;;;5.05;;
64857;SDS011;51335;51.148;6.950;2023-07-02T01:25:31;13.27;;;4.95;;
64857;SDS011;51335;51.148;6.950;2023-07-02T01:26:01;11.02;;;4.30;;
64857;SDS011;51335;51.148;6.950;2023-07-02T01:26:31;14.82;;;4.80;;
64857;SDS011;51335;51.148;6.950;2023-07-02T01:27:03;9.52;;;4.75;;
64857;SDS011;51335;51.148;6.950;2023-07-02T01:27:33;9.80;;;4.70;;
64857;SDS011;51335;51.148;6.950;2023-07-02T01:28:03;20.75;;;5.30;;
64857;SDS011;51335;51.148;6.950;2023-07-02T01:28:34;12.52;;;5.30;;
64857;SDS011;51335;51.148;6.950;2023-07-02T01:29:15;10.80;;;5.00;;
64857;SDS011;51335;51.148;6.950;2023-07-02T01:29:46;8.90;;;4.60;;
64857;SDS011;51335;51.148;6.950;2023-07-02T01:30:20;11.15;;;4.43;;
64857;SDS011;51335;51.148;6.950;2023-07-02T01:30:50;17.08;;;4.72;;
64857;SDS011;51335;51.148;6.950;2023-07-02T01:31:21;12.90;;;5.40;;
64857;SDS011;51335;51.148;6.950;2023-07-02T01:31:51;10.90;;;5.18;;
64857;SDS011;51335;51.148;6.950;2023-07-02T01:32:22;11.70;;;5.00;;
64857;SDS011;51335;51.148;6.950;2023-07-02T01:32:52;11.77;;;4.88;;
64857;SDS011;51335;51.148;6.950;2023-07-02T01:33:23;14.88;;;4.72;;
64857;SDS011;51335;51.148;6.950;2023-07-02T01:33:53;13.23;;;5.20;;
64857;SDS011;51335;51.148;6.950;2023-07-02T01:34:23;11.95;;;4.72;;
64857;SDS011;51335;51.148;6.950;2023-07-02T01:34:54;13.07;;;5.88;;
64857;SDS011;51335;51.148;6.950;2023-07-02T01:35:24;14.40;;;5.35;;
64857;SDS011;51335;51.148;6.950;2023-07-02T01:35:54;15.55;;;5.72;;
64857;SDS011;51335;51.148;6.950;2023-07-02T01:36:24;12.80;;;5.22;;
64857;SDS011;51335;51.148;6.950;2023-07-02T01:36:55;13.32;;;5.30;;
64857;SDS011;51335;51.148;6.950;2023-07-02T01:37:25;13.68;;;5.20;;
64857;SDS011;51335;51.148;6.950;2023-07-02T01:37:55;11.05;;;5.57;;
64857;SDS011;51335;51.148;6.950;2023-07-02T01:38:25;15.75;;;5.95;;
64857;SDS011;51335;51.148;6.950;2023-07-02T01:38:56;11.65;;;5.68;;
64857;SDS011;51335;51.148;6.950;2023-07-02T01:39:26;13.10;;;5.22;;
64857;SDS011;51335;51.148;6.950;2023-07-02T01:39:56;13.52;;;5.40;;
64857;SDS011;51335;51.148;6.950;2023-07-02T01:40:27;11.85;;;5.30;;
64857;SDS011;51335;51.148;6.950;2023-07-02T01:40:58;13.32;;;4.97;;
64857;SDS011;51335;51.148;6.950;2023-07-02T01:41:28;11.65;;;5.15;;
64857;SDS011;51335;51.148;6.950;2023-07-02T01:42:09;15.55;;;5.15;;
64857;SDS011;51335;51.148;6.950;2023-07-02T01:42:40;15.77;;;5.20;;
64857;SDS011;51335;51.148;6.950;2023-07-02T01:43:11;11.32;;;4.85;;
64857;SDS011;51335;51.148;6.950;2023-07-02T01:43:41;14.13;;;5.45;;
64857;SDS011;51335;51.148;6.950;2023-07-02T01:44:11;14.20;;;5.32;;
64857;SDS011;51335;51.148;6.950;2023-07-02T01:44:42;15.25;;;5.13;;
64857;SDS011;51335;51.148;6.950;2023-07-02T01:45:13;12.43;;;5.47;;
64857;SDS011;51335;51.148;6.950;2023-07-02T01:45:43;14.00;;;5.40;;
64857;SDS011;51335;51.148;6.950;2023-07-02T01:46:13;15.68;;;5.63;;
64857;SDS011;51335;51.148;6.950;2023-07-02T01:46:44;13.20;;;5.65;;
64857;SDS011;51335;51.148;6.950;2023-07-02T01:47:15;11.70;;;5.43;;
64857;SDS011;51335;51.148;6.950;2023-07-02T01:47:45;12.77;;;5.57;;
64857;SDS011;51335;51.148;6.950;2023-07-02T01:48:16;12.80;;;5.70;;
64857;SDS011;51335;51.148;6.950;2023-07-02T01:48:46;15.07;;;5.47;;
64857;SDS011;51335;51.148;6.950;2023-07-02T01:49:17;8.75;;;5.35;;
64857;SDS011;51335;51.148;6.950;2023-07-02T01:49:50;15.35;;;6.10;;
64857;SDS011;51335;51.148;6.950;2023-07-02T01:50:20;11.90;;;5.45;;
64857;SDS011;51335;51.148;6.950;2023-07-02T01:50:51;13.85;;;6.18;;
64857;SDS011;51335;51.148;6.950;2023-07-02T01:51:21;11.50;;;5.47;;
64857;SDS011;51335;51.148;6.950;2023-07-02T01:51:52;15.45;;;5.43;;
64857;SDS011;51335;51.148;6.950;2023-07-02T01:52:22;19.38;;;6.15;;
64857;SDS011;51335;51.148;6.950;2023-07-02T01:52:53;14.60;;;5.78;;
64857;SDS011;51335;51.148;6.950;2023-07-02T01:53:23;14.48;;;6.10;;
64857;SDS011;51335;51.148;6.950;2023-07-02T01:53:53;17.23;;;6.30;;
64857;SDS011;51335;51.148;6.950;2023-07-02T01:54:25;15.25;;;6.03;;
64857;SDS011;51335;51.148;6.950;2023-07-02T01:54:56;13.35;;;6.07;;
64857;SDS011;51335;51.148;6.950;2023-07-02T01:55:26;16.10;;;6.03;;
64857;SDS011;51335;51.148;6.950;2023-07-02T01:55:56;16.70;;;6.18;;
64857;SDS011;51335;51.148;6.950;2023-07-02T01:56:27;14.88;;;5.88;;
64857;SDS011;51335;51.148;6.950;2023-07-02T01:56:57;17.25;;;5.90;;
64857;SDS011;51335;51.148;6.950;2023-07-02T01:57:28;19.83;;;6.10;;
64857;SDS011;51335;51.148;6.950;2023-07-02T01:57:58;14.95;;;6.15;;
64857;SDS011;51335;51.148;6.950;2023-07-02T01:58:28;12.77;;;5.93;;
64857;SDS011;51335;51.148;6.950;2023-07-02T01:58:58;14.95;;;6.45;;
64857;SDS011;51335;51.148;6.950;2023-07-02T01:59:29;12.75;;;5.63;;
64857;SDS011;51335;51.148;6.950;2023-07-02T01:59:59;14.27;;;6.07;;
64857;SDS011;51335;51.148;6.950;2023-07-02T02:00:29;14.00;;;6.15;;
64857;SDS011;51335;51.148;6.950;2023-07-02T02:00:59;15.13;;;6.10;;
64857;SDS011;51335;51.148;6.950;2023-07-02T02:01:30;17.58;;;6.07;;
64857;SDS011;51335;51.148;6.950;2023-07-02T02:02:00;17.65;;;6.55;;
64857;SDS011;51335;51.148;6.950;2023-07-02T02:02:31;11.88;;;6.38;;
64857;SDS011;51335;51.148;6.950;2023-07-02T02:03:01;16.50;;;6.30;;
64857;SDS011;51335;51.148;6.950;2023-07-02T02:03:31;19.40;;;6.78;;
64857;SDS011;51335;51.148;6.950;2023-07-02T02:04:02;16.48;;;6.40;;
64857;SDS011;51335;51.148;6.950;2023-07-02T02:04:32;18.40;;;6.68;;
64857;SDS011;51335;51.148;6.950;2023-07-02T02:05:02;11.77;;;6.22;;
64857;SDS011;51335;51.148;6.950;2023-07-02T02:05:33;16.25;;;6.57;;
64857;SDS011;51335;51.148;6.950;2023-07-02T02:06:03;14.25;;;6.70;;
64857;SDS011;51335;51.148;6.950;2023-07-02T02:06:33;14.68;;;6.60;;
64857;SDS011;51335;51.148;6.950;2023-07-02T02:07:04;15.70;;;6.30;;
64857;SDS011;51335;51.148;6.950;2023-07-02T02:07:37;14.00;;;6.68;;
64857;SDS011;51335;51.148;6.950;2023-07-02T02:08:08;14.27;;;6.60;;
64857;SDS011;51335;51.148;6.950;2023-07-02T02:08:38;14.43;;;6.60;;
64857;SDS011;51335;51.148;6.950;2023-07-02T02:09:08;16.33;;;7.13;;
64857;SDS011;51335;51.148;6.950;2023-07-02T02:09:39;13.57;;;6.57;;
64857;SDS011;51335;51.148;6.950;2023-07-02T02:10:09;13.60;;;6.47;;
64857;SDS011;51335;51.148;6.950;2023-07-02T02:10:40;12.68;;;6.25;;
64857;SDS011;51335;51.148;6.950;2023-07-02T02:11:10;15.68;;;7.22;;
64857;SDS011;51335;51.148;6.950;2023-07-02T02:11:42;13.57;;;6.43;;
64857;SDS011;51335;51.148;6.950;2023-07-02T02:12:14;18.30;;;6.53;;
64857;SDS011;51335;51.148;6.950;2023-07-02T02:12:45;15.93;;;6.53;;
64857;SDS011;51335;51.148;6.950;2023-07-02T02:13:15;16.35;;;6.72;;
64857;SDS011;51335;51.148;6.950;2023-07-02T02:13:45;15.32;;;6.50;;
64857;SDS011;51335;51.148;6.950;2023-07-02T02:14:15;17.58;;;7.32;;
64857;SDS011;51335;51.148;6.950;2023-07-02T02:14:46;19.77;;;7.72;;
64857;SDS011;51335;51.148;6.950;2023-07-02T02:15:16;16.40;;;6.95;;
64857;SDS011;51335;51.148;6.950;2023-07-02T02:15:47;17.27;;;6.88;;
64857;SDS011;51335;51.148;6.950;2023-07-02T02:16:17;16.15;;;6.80;;
64857;SDS011;51335;51.148;6.950;2023-07-02T02:16:47;17.08;;;7.03;;
64857;SDS011;51335;51.148;6.950;2023-07-02T02:17:18;15.68;;;7.18;;
64857;SDS011;51335;51.148;6.950;2023-07-02T02:17:48;18.60;;;7.15;;
64857;SDS011;51335;51.148;6.950;2023-07-02T02:18:18;15.65;;;7.03;;
64857;SDS011;51335;51.148;6.950;2023-07-02T02:18:48;19.00;;;7.72;;
64857;SDS011;51335;51.148;6.950;2023-07-02T02:19:19;18.55;;;7.45;;
64857;SDS011;51335;51.148;6.950;2023-07-02T02:19:49;15.65;;;7.07;;
64857;SDS011;51335;51.148;6.950;2023-07-02T02:20:19;18.10;;;7.38;;
64857;SDS011;51335;51.148;6.950;2023-07-02T02:20:50;17.25;;;7.15;;
64857;SDS011;51335;51.148;6.950;2023-07-02T02:21:20;13.90;;;7.15;;
64857;SDS011;51335;51.148;6.950;2023-07-02T02:21:51;17.52;;;6.90;;
64857;SDS011;51335;51.148;6.950;2023-07-02T02:22:21;22.73;;;7.25;;
64857;SDS011;51335;51.148;6.950;2023-07-02T02:22:51;13.85;;;7.25;;
64857;SDS011;51335;51.148;6.950;2023-07-02T02:23:22;18.27;;;8.05;;
64857;SDS011;51335;51.148;6.950;2023-07-02T02:23:52;18.25;;;7.82;;
64857;SDS011;51335;51.148;6.950;2023-07-02T02:24:22;17.73;;;7.45;;
64857;SDS011;51335;51.148;6.950;2023-07-02T02:24:53;15.10;;;7.43;;
64857;SDS011;51335;51.148;6.950;2023-07-02T02:25:23;18.88;;;7.85;;
64857;SDS011;51335;51.148;6.950;2023-07-02T02:25:53;19.70;;;8.00;;
64857;SDS011;51335;51.148;6.950;2023-07-02T02:26:24;17.25;;;7.85;;
64857;SDS011;51335;51.148;6.950;2023-07-02T02:26:54;17.33;;;7.70;;
64857;SDS011;51335;51.148;6.950;2023-07-02T02:27:26;18.77;;;7.18;;
64857;SDS011;51335;51.148;6.950;2023-07-02T02:27:56;17.23;;;7.90;;
64857;SDS011;51335;51.148;6.950;2023-07-02T02:28:26;18.10;;;7.47;;
64857;SDS011;51335;51.148;6.950;2023-07-02T02:28:57;18.92;;;7.35;;
64857;SDS011;51335;51.148;6.950;2023-07-02T02:29:27;17.25;;;7.40;;
64857;SDS011;51335;51.148;6.950;2023-07-02T02:29:58;21.33;;;8.23;;
64857;SDS011;51335;51.148;6.950;2023-07-02T02:30:28;17.50;;;7.47;;
64857;SDS011;51335;51.148;6.950;2023-07-02T02:30:58;17.27;;;7.65;;
64857;SDS011;51335;51.148;6.950;2023-07-02T02:31:29;19.10;;;7.93;;
64857;SDS011;51335;51.148;6.950;2023-07-02T02:31:59;20.17;;;7.97;;
64857;SDS011;51335;51.148;6.950;2023-07-02T02:32:29;17.05;;;7.63;;
64857;SDS011;51335;51.148;6.950;2023-07-02T02:32:59;18.58;;;7.25;;
64857;SDS011;51335;51.148;6.950;2023-07-02T02:33:30;17.85;;;7.78;;
64857;SDS011;51335;51.148;6.950;2023-07-02T02:34:00;17.85;;;7.30;;
64857;SDS011;51335;51.148;6.950;2023-07-02T02:34:30;20.50;;;8.25;;
64857;SDS011;51335;51.148;6.950;2023-07-02T02:35:01;17.77;;;7.72;;
64857;SDS011;51335;51.148;6.950;2023-07-02T02:35:31;17.35;;;7.25;;
64857;SDS011;51335;51.148;6.950;2023-07-02T02:36:02;17.00;;;8.00;;
64857;SDS011;51335;51.148;6.950;2023-07-02T02:36:32;19.00;;;8.43;;
64857;SDS011;51335;51.148;6.950;2023-07-02T02:37:03;17.15;;;7.50;;
64857;SDS011;51335;51.148;6.950;2023-07-02T02:37:33;18.50;;;8.05;;
64857;SDS011;51335;51.148;6.950;2023-07-02T02:38:05;24.27;;;8.45;;
64857;SDS011;51335;51.148;6.950;2023-07-02T02:38:35;16.10;;;7.25;;
64857;SDS011;51335;51.148;6.950;2023-07-02T02:39:05;18.35;;;7.93;;
64857;SDS011;51335;51.148;6.950;2023-07-02T02:39:35;17.90;;;8.35;;
64857;SDS011;51335;51.148;6.950;2023-07-02T02:40:09;20.70;;;7.97;;
64857;SDS011;51335;51.148;6.950;2023-07-02T02:40:40;18.27;;;8.02;;
64857;SDS011;51335;51.148;6.950;2023-07-02T02:41:10;19.23;;;7.78;;
64857;SDS011;51335;51.148;6.950;2023-07-02T02:41:40;24.17;;;8.30;;
64857;SDS011;51335;51.148;6.950;2023-07-02T02:42:11;17.70;;;7.70;;
64857;SDS011;51335;51.148;6.950;2023-07-02T02:42:41;20.08;;;7.72;;
64857;SDS011;51335;51.148;6.950;2023-07-02T02:43:11;17.70;;;7.80;;
64857;SDS011;51335;51.148;6.950;2023-07-02T02:43:42;17.67;;;7.60;;
64857;SDS011;51335;51.148;6.950;2023-07-02T02:44:12;17.50;;;7.95;;
64857;SDS011;51335;51.148;6.950;2023-07-02T02:44:43;15.85;;;7.50;;
64857;SDS011;51335;51.148;6.950;2023-07-02T02:45:13;17.02;;;7.82;;
64857;SDS011;51335;51.148;6.950;2023-07-02T02:45:43;16.65;;;7.60;;
64857;SDS011;51335;51.148;6.950;2023-07-02T02:46:19;20.77;;;8.02;;
64857;SDS011;51335;51.148;6.950;2023-07-02T02:46:50;17.05;;;7.63;;
64857;SDS011;51335;51.148;6.950;2023-07-02T02:47:20;16.73;;;8.63;;
64857;SDS011;51335;51.148;6.950;2023-07-02T02:47:50;21.90;;;8.40;;
64857;SDS011;51335;51.148;6.950;2023-07-02T02:48:21;17.40;;;8.35;;
64857;SDS011;51335;51.148;6.950;2023-07-02T02:48:51;18.52;;;8.32;;
64857;SDS011;51335;51.148;6.950;2023-07-02T02:49:21;22.80;;;8.90;;
64857;SDS011;51335;51.148;6.950;2023-07-02T02:49:52;23.67;;;8.65;;
64857;SDS011;51335;51.148;6.950;2023-07-02T02:50:22;18.20;;;7.93;;
64857;SDS011;51335;51.148;6.950;2023-07-02T02:50:52;21.85;;;7.95;;
64857;SDS011;51335;51.148;6.950;2023-07-02T02:51:23;21.90;;;8.45;;
64857;SDS011;51335;51.148;6.950;2023-07-02T02:51:53;21.80;;;8.52;;
64857;SDS011;51335;51.148;6.950;2023-07-02T02:52:23;19.17;;;8.25;;
64857;SDS011;51335;51.148;6.950;2023-07-02T02:52:53;21.42;;;8.30;;
64857;SDS011;51335;51.148;6.950;2023-07-02T02:53:24;18.10;;;7.82;;
64857;SDS011;51335;51.148;6.950;2023-07-02T02:53:54;17.92;;;8.60;;
64857;SDS011;51335;51.148;6.950;2023-07-02T02:54:24;19.55;;;8.27;;
64857;SDS011;51335;51.148;6.950;2023-07-02T02:54:54;18.45;;;7.93;;
64857;SDS011;51335;51.148;6.950;2023-07-02T02:55:25;17.52;;;8.30;;
64857;SDS011;51335;51.148;6.950;2023-07-02T02:55:55;16.20;;;7.60;;
64857;SDS011;51335;51.148;6.950;2023-07-02T02:56:25;19.58;;;8.35;;
64857;SDS011;51335;51.148;6.950;2023-07-02T02:56:55;20.98;;;8.70;;
64857;SDS011;51335;51.148;6.950;2023-07-02T02:57:26;20.55;;;8.00;;
64857;SDS011;51335;51.148;6.950;2023-07-02T02:57:56;21.35;;;8.68;;
64857;SDS011;51335;51.148;6.950;2023-07-02T02:58:26;18.67;;;8.45;;
64857;SDS011;51335;51.148;6.950;2023-07-02T02:58:56;19.92;;;8.23;;
64857;SDS011;51335;51.148;6.950;2023-07-02T02:59:27;18.63;;;8.15;;
64857;SDS011;51335;51.148;6.950;2023-07-02T02:59:57;18.85;;;8.18;;
64857;SDS011;51335;51.148;6.950;2023-07-02T03:00:28;19.73;;;8.70;;
64857;SDS011;51335;51.148;6.950;2023-07-02T03:00:58;19.40;;;8.48;;
64857;SDS011;51335;51.148;6.950;2023-07-02T03:01:28;16.63;;;7.93;;
64857;SDS011;51335;51.148;6.950;2023-07-02T03:01:58;22.42;;;8.38;;
64857;SDS011;51335;51.148;6.950;2023-07-02T03:02:29;18.98;;;8.48;;
64857;SDS011;51335;51.148;6.950;2023-07-02T03:02:59;19.83;;;8.50;;
64857;SDS011;51335;51.148;6.950;2023-07-02T03:03:29;27.95;;;8.35;;
64857;SDS011;51335;51.148;6.950;2023-07-02T03:03:59;18.63;;;7.95;;